Corky — WDC3366 — position and weather

sailwx.info

Track history (hours):
 
Tides and Currents Weather Stations Pressure Air Temp Water Temp Dewpoint Dewpoint Depression Visibility Wind Speed Wind Dir Waves Ship Positions

Corky

Owner: Gulf South Marine Transportation, Inc., New Orleans, LA. More information available from US FCC via Universal Licensing System and Coast Guard Vessel Documentation Center.

Last reported at 2018-Jun-24 22:15 UTC. Time now 2018-Jun-25 05:44 UTC.
Position N 29°51' W 091°56'.

Length 18 m; draft 3.3 m.

Type: Tow > 200 m length. MMSI: 367006780.

Date/timePositionNaut miles runAvg speedWind from/ knotsBaromVisibWave heightAir tempDewpointWater temp
2018-Jun-24 22:15N 29°51' W 091°56'1 4.6
2018-Jun-24 22:00N 29°50' W 091°58'2 4.6
2018-Jun-24 21:30N 29°50' W 092°00'2 4.6
2018-Jun-24 21:00N 29°49' W 092°03'2 4.5
2018-Jun-24 20:30N 29°48' W 092°05'2 4.5
2018-Jun-24 20:00N 29°47' W 092°08'2 4.3
2018-Jun-24 19:30N 29°47' W 092°10'1 2.9
2018-Jun-24 19:00N 29°47' W 092°12'1 1.4
2018-Jun-24 18:30N 29°47' W 092°12'1 1.1
2018-Jun-24 18:00N 29°47' W 092°13'1 1.7
2018-Jun-24 17:30N 29°48' W 092°14'1 1.1
2018-Jun-24 17:00N 29°48' W 092°14'1 3.0
2018-Jun-24 16:30N 29°49' W 092°16'0 1.0
2018-Jun-24 16:00N 29°49' W 092°17'1 1.0
2018-Jun-24 15:30N 29°49' W 092°17'0 0.0
2018-Jun-24 15:00N 29°49' W 092°17'0 0.8
2018-Jun-24 14:30N 29°49' W 092°17'1 2.9
2018-Jun-24 14:00N 29°50' W 092°19'3 4.6
2018-Jun-24 13:24N 29°51' W 092°22'33 3.8
2018-Jun-24 04:49N 29°56' W 092°59'3 3.9
2018-Jun-24 04:09N 29°56' W 093°02'1 4.4
2018-Jun-24 03:56N 29°56' W 093°03'2 3.9
2018-Jun-24 03:29N 29°56' W 093°05'2 4.4
2018-Jun-24 03:00N 29°56' W 093°07'2 3.9
2018-Jun-24 02:30N 29°56' W 093°10'2 3.4
2018-Jun-24 01:59N 29°57' W 093°11'2 4.5
2018-Jun-24 01:30N 29°59' W 093°12'2 4.3
2018-Jun-24 01:00N 30°01' W 093°14'1 1.5
2018-Jun-24 00:30N 30°02' W 093°14'0 0.1
2018-Jun-24 00:00N 30°02' W 093°14'0 0.7
2018-Jun-23 23:30N 30°02' W 093°15'2 3.9
2018-Jun-23 23:00N 30°03' W 093°16'1 2.9
2018-Jun-23 22:30N 30°05' W 093°17'1 2.1
2018-Jun-23 22:00N 30°05' W 093°18'1 1.6
2018-Jun-23 21:30N 30°06' W 093°18'1 1.1
2018-Jun-23 21:00N 30°06' W 093°19'0 0.1
2018-Jun-23 20:25N 30°06' W 093°19'0 0.0
2018-Jun-23 20:00N 30°06' W 093°19'0 0.0
2018-Jun-23 19:29N 30°06' W 093°19'0 0.0
2018-Jun-23 18:59N 30°06' W 093°19'0 0.0
2018-Jun-23 18:30N 30°06' W 093°19'0 0.1
2018-Jun-23 18:00N 30°06' W 093°19'0 0.2
2018-Jun-23 17:30N 30°06' W 093°19'0 0.0
2018-Jun-23 17:00N 30°06' W 093°19'0 0.0
2018-Jun-23 16:30N 30°06' W 093°19'0 0.0
2018-Jun-23 16:00N 30°06' W 093°19'0 0.0
2018-Jun-23 15:30N 30°06' W 093°19'0 0.1
2018-Jun-23 15:00N 30°06' W 093°19'0 0.1
2018-Jun-23 14:30N 30°06' W 093°19'0 0.0
2018-Jun-23 14:00N 30°06' W 093°19'0 0.0
2018-Jun-23 13:30N 30°06' W 093°19'0 0.1
2018-Jun-23 13:00N 30°06' W 093°19'0 0.0
2018-Jun-23 12:30N 30°06' W 093°19'1 1.5
2018-Jun-23 12:00N 30°06' W 093°19'2 3.6
2018-Jun-23 11:30N 30°04' W 093°21'2 3.1
2018-Jun-23 11:00N 30°04' W 093°22'0 0.5
2018-Jun-23 10:30N 30°04' W 093°23'0 0.1
2018-Jun-23 10:00N 30°04' W 093°23'0 0.0
2018-Jun-23 09:30N 30°04' W 093°23'0 0.0
2018-Jun-23 09:00N 30°04' W 093°23'0 0.0
2018-Jun-23 08:30N 30°04' W 093°23'0 0.0
2018-Jun-23 07:58N 30°04' W 093°23'0 0.0
2018-Jun-23 07:30N 30°04' W 093°23'0 0.0
2018-Jun-23 07:00N 30°04' W 093°23'0 0.2
2018-Jun-23 06:30N 30°04' W 093°23'1 1.6
2018-Jun-23 06:00N 30°04' W 093°24'1 1.3
2018-Jun-23 05:30N 30°04' W 093°24'0 0.0
2018-Jun-23 05:00N 30°04' W 093°24'0 0.0
2018-Jun-23 04:30N 30°04' W 093°24'0 0.0
2018-Jun-23 03:59N 30°04' W 093°24'0 0.0
2018-Jun-23 03:30N 30°04' W 093°24'0 0.0
2018-Jun-23 03:00N 30°04' W 093°24'0 0.7
2018-Jun-23 02:30N 30°04' W 093°25'0 0.9
2018-Jun-23 02:00N 30°04' W 093°25'0 0.7
2018-Jun-23 01:30N 30°04' W 093°26'2 3.8
2018-Jun-23 01:00N 30°04' W 093°28'2 4.9
2018-Jun-23 00:30N 30°04' W 093°31'4 4.6
2018-Jun-22 23:41N 30°04' W 093°35'2 4.9
2018-Jun-22 23:16N 30°04' W 093°37'2 4.9
2018-Jun-22 22:48N 30°04' W 093°40'2 5.0
2018-Jun-22 22:30N 30°03' W 093°42'2 4.6
2018-Jun-22 22:00N 30°02' W 093°44'2 4.2
2018-Jun-22 21:30N 30°01' W 093°46'2 3.4
2018-Jun-22 21:00N 29°60' W 093°47'2 4.6
2018-Jun-22 20:30N 29°59' W 093°49'2 3.8
2018-Jun-22 20:00N 29°58' W 093°51'2 3.7
2018-Jun-22 19:30N 29°56' W 093°52'0 0.5
2018-Jun-22 19:00N 29°56' W 093°52'1 1.9
2018-Jun-22 18:30N 29°57' W 093°52'1 2.0
2018-Jun-22 17:59N 29°58' W 093°52'0 0.0
2018-Jun-22 17:30N 29°58' W 093°52'0 0.0
2018-Jun-22 16:59N 29°58' W 093°52'0 0.0
2018-Jun-22 16:30N 29°58' W 093°52'0 0.0
2018-Jun-22 16:00N 29°58' W 093°52'0 0.0
2018-Jun-22 15:30N 29°58' W 093°52'0 0.0
2018-Jun-22 15:00N 29°58' W 093°52'0 0.0
2018-Jun-22 14:30N 29°58' W 093°52'0 0.0
2018-Jun-22 13:59N 29°58' W 093°52'0 0.0
2018-Jun-22 13:30N 29°58' W 093°52'0 0.0
2018-Jun-22 13:00N 29°58' W 093°52'0 0.0
2018-Jun-22 12:30N 29°58' W 093°52'3 5.3
2018-Jun-22 12:00N 29°59' W 093°49'4 7.4
2018-Jun-22 11:30N 30°01' W 093°45'4 6.6
2018-Jun-22 10:55N 30°04' W 093°42'3 6.8
2018-Jun-22 10:29N 30°04' W 093°38'3 6.4
2018-Jun-22 09:59N 30°04' W 093°35'3 5.6
2018-Jun-22 09:30N 30°04' W 093°31'3 6.5
2018-Jun-22 09:00N 30°04' W 093°28'3 6.5
2018-Jun-22 08:30N 30°04' W 093°24'2 4.3
2018-Jun-22 08:00N 30°04' W 093°21'0 0.2
2018-Jun-22 07:30N 30°04' W 093°21'0 0.0
2018-Jun-22 07:00N 30°04' W 093°21'0 0.0
2018-Jun-22 06:30N 30°04' W 093°21'0 0.0
2018-Jun-22 06:00N 30°04' W 093°21'1 1.4
2018-Jun-22 05:30N 30°04' W 093°21'1 1.2
2018-Jun-22 05:00N 30°05' W 093°20'1 2.8
2018-Jun-22 04:30N 30°06' W 093°19'1 2.3
2018-Jun-22 04:00N 30°06' W 093°18'1 1.2
2018-Jun-22 03:30N 30°05' W 093°17'1 1.9
2018-Jun-22 03:00N 30°05' W 093°17'0 0.8
2018-Jun-22 02:30N 30°04' W 093°16'0 0.3
2018-Jun-22 02:00N 30°04' W 093°16'0 0.0
2018-Jun-22 01:30N 30°04' W 093°16'0 0.0
2018-Jun-22 01:00N 30°04' W 093°16'0 0.0
2018-Jun-22 00:30N 30°04' W 093°16'0 0.0
2018-Jun-22 00:00N 30°04' W 093°16'0 0.0
2018-Jun-21 23:30N 30°04' W 093°16'0 0.0
2018-Jun-21 23:00N 30°04' W 093°16'0 0.0
2018-Jun-21 22:30N 30°04' W 093°16'0 0.0
2018-Jun-21 22:00N 30°04' W 093°16'0 0.0
2018-Jun-21 21:30N 30°04' W 093°16'0 0.0
2018-Jun-21 21:00N 30°04' W 093°16'0 0.0
2018-Jun-21 20:30N 30°04' W 093°16'0 0.0
2018-Jun-21 20:00N 30°04' W 093°16'0 0.0
2018-Jun-21 19:30N 30°04' W 093°16'0 0.0
2018-Jun-21 19:00N 30°04' W 093°16'0 0.0
2018-Jun-21 18:30N 30°04' W 093°16'0 0.0
2018-Jun-21 18:00N 30°04' W 093°16'0 0.0
2018-Jun-21 17:30N 30°04' W 093°16'0 0.0
2018-Jun-21 17:00N 30°04' W 093°16'0 0.0
2018-Jun-21 16:30N 30°04' W 093°16'0 0.0
2018-Jun-21 16:00N 30°04' W 093°16'0 0.0
2018-Jun-21 15:30N 30°04' W 093°16'0 0.0
2018-Jun-21 15:00N 30°04' W 093°16'0 0.0
2018-Jun-21 14:30N 30°04' W 093°16'0 0.0
2018-Jun-21 13:59N 30°04' W 093°16'0 0.0
2018-Jun-21 13:30N 30°04' W 093°16'0 0.1
2018-Jun-21 13:00N 30°04' W 093°16'1 2.8
2018-Jun-21 12:30N 30°03' W 093°16'1 2.2
2018-Jun-21 12:00N 30°02' W 093°15'1 3.0
2018-Jun-21 11:30N 30°01' W 093°14'2 3.2
2018-Jun-21 11:00N 29°59' W 093°13'2 3.2
2018-Jun-21 10:30N 29°58' W 093°12'2 3.1
2018-Jun-21 10:00N 29°57' W 093°10'1 2.5
2018-Jun-21 09:30N 29°56' W 093°10'1 1.9
2018-Jun-21 09:00N 29°56' W 093°08'1 2.1
2018-Jun-21 08:27N 29°56' W 093°07'35 2.7
2018-Jun-20 19:47N 29°54' W 092°27'2 2.7
2018-Jun-20 19:11N 29°53' W 092°25'1 3.3
2018-Jun-20 18:57N 29°53' W 092°24'1 3.2
2018-Jun-20 18:29N 29°52' W 092°23'2 3.1
2018-Jun-20 17:57N 29°51' W 092°22'1 2.8
2018-Jun-20 17:30N 29°51' W 092°20'0 0.9
2018-Jun-20 17:00N 29°51' W 092°20'0 0.7
2018-Jun-20 16:30N 29°50' W 092°20'1 2.8
2018-Jun-20 16:01N 29°50' W 092°18'0 0.8
2018-Jun-20 15:30N 29°50' W 092°18'0 0.3
2018-Jun-20 15:00N 29°50' W 092°18'0 0.9
2018-Jun-20 14:30N 29°49' W 092°17'0 0.1
2018-Jun-20 14:00N 29°49' W 092°17'0 0.0
2018-Jun-20 13:30N 29°49' W 092°17'0 0.0
2018-Jun-20 13:00N 29°49' W 092°17'0 0.0
2018-Jun-20 12:28N 29°49' W 092°17'0 0.0
2018-Jun-20 12:00N 29°49' W 092°17'0 0.0
2018-Jun-20 11:29N 29°49' W 092°17'0 0.0
2018-Jun-20 11:00N 29°49' W 092°17'0 0.0
2018-Jun-20 10:28N 29°49' W 092°17'1 1.2
2018-Jun-20 10:00N 29°49' W 092°17'1 2.5
2018-Jun-20 09:30N 29°48' W 092°16'1 2.4
2018-Jun-20 08:59N 29°48' W 092°14'2 3.2
2018-Jun-20 08:30N 29°47' W 092°13'0 0.6
2018-Jun-20 07:59N 29°47' W 092°12'1 1.9
2018-Jun-20 07:30N 29°47' W 092°11'0 0.0
2018-Jun-20 07:00N 29°47' W 092°11'0 0.0
2018-Jun-20 06:30N 29°47' W 092°11'1 1.1
2018-Jun-20 06:00N 29°47' W 092°11'0 0.1
2018-Jun-20 05:30N 29°47' W 092°11'0 0.0
2018-Jun-20 05:00N 29°47' W 092°11'0 0.0
2018-Jun-20 04:29N 29°47' W 092°11'0 0.0
2018-Jun-20 04:00N 29°47' W 092°11'0 0.0
2018-Jun-20 03:30N 29°47' W 092°11'0 0.0
2018-Jun-20 03:00N 29°47' W 092°11'0 0.0
2018-Jun-20 02:30N 29°47' W 092°11'0 0.0
2018-Jun-20 02:00N 29°47' W 092°11'0 0.1
2018-Jun-20 01:29N 29°47' W 092°11'0 0.1
2018-Jun-20 01:00N 29°47' W 092°11'1 2.0
2018-Jun-20 00:30N 29°47' W 092°10'1 3.0
2018-Jun-20 00:00N 29°47' W 092°08'0 0.4
2018-Jun-19 23:30N 29°47' W 092°08'0 0.0
2018-Jun-19 23:00N 29°47' W 092°08'0 0.1
2018-Jun-19 22:30N 29°47' W 092°08'0 0.0
2018-Jun-19 22:00N 29°47' W 092°08'0 0.0
2018-Jun-19 21:30N 29°47' W 092°08'0 0.0
2018-Jun-19 21:00N 29°47' W 092°08'0 0.0
2018-Jun-19 20:30N 29°47' W 092°08'0 0.0
2018-Jun-19 20:00N 29°47' W 092°08'1 1.2
2018-Jun-19 19:30N 29°47' W 092°07'1 2.0
2018-Jun-19 19:00N 29°48' W 092°06'0 0.1
2018-Jun-19 18:30N 29°48' W 092°06'0 0.0
2018-Jun-19 17:52N 29°48' W 092°06'0 0.0
2018-Jun-19 17:30N 29°48' W 092°06'0 0.1
2018-Jun-19 17:00N 29°48' W 092°06'0 0.0
2018-Jun-19 16:30N 29°48' W 092°06'0 0.0
2018-Jun-19 16:00N 29°48' W 092°06'0 0.1
2018-Jun-19 15:30N 29°48' W 092°06'1 1.3
2018-Jun-19 15:00N 29°48' W 092°05'2 3.5
2018-Jun-19 14:30N 29°49' W 092°03'2 3.6
2018-Jun-19 14:00N 29°49' W 092°01'2 3.8
2018-Jun-19 13:30N 29°50' W 091°59'56 2.3
2018-Jun-18 12:38N 29°34' W 090°57'2 4.0
2018-Jun-18 12:14N 29°33' W 090°55'3 3.8
2018-Jun-18 11:25N 29°32' W 090°52'2 4.0
2018-Jun-18 11:00N 29°32' W 090°50'2 4.0
2018-Jun-18 10:30N 29°32' W 090°48'2 3.6
2018-Jun-18 10:00N 29°32' W 090°46'2 3.5
2018-Jun-18 09:30N 29°34' W 090°44'1 2.9
2018-Jun-18 09:00N 29°35' W 090°43'2 3.3
2018-Jun-18 08:30N 29°36' W 090°43'1 2.4
2018-Jun-18 08:00N 29°36' W 090°41'1 2.5
2018-Jun-18 07:30N 29°36' W 090°40'1 2.5
2018-Jun-18 07:00N 29°35' W 090°39'1 2.7
2018-Jun-18 06:30N 29°35' W 090°37'2 3.3
2018-Jun-18 06:00N 29°35' W 090°35'2 3.6
2018-Jun-18 05:30N 29°34' W 090°34'1 3.0
2018-Jun-18 05:00N 29°34' W 090°32'  
Track history (hours):
 
Tides and Currents Weather Stations Pressure Air Temp Water Temp Dewpoint Dewpoint Depression Visibility Wind Speed Wind Dir Waves Ship Positions

Corky

Owner: Gulf South Marine Transportation, Inc., New Orleans, LA. More information available from US FCC via Universal Licensing System and Coast Guard Vessel Documentation Center.

Last reported at 2018-Jun-24 22:15 UTC. Time now 2018-Jun-25 05:44 UTC.
Position N 29°51' W 091°56'.

Length 18 m; draft 3.3 m.

Type: Tow > 200 m length. MMSI: 367006780.

Date/timePositionNaut miles runAvg speedWind from/ knotsBaromVisibWave heightAir tempDewpointWater temp
2018-Jun-24 22:15N 29°51' W 091°56'1 4.6
2018-Jun-24 22:00N 29°50' W 091°58'2 4.6
2018-Jun-24 21:30N 29°50' W 092°00'2 4.6
2018-Jun-24 21:00N 29°49' W 092°03'2 4.5
2018-Jun-24 20:30N 29°48' W 092°05'2 4.5
2018-Jun-24 20:00N 29°47' W 092°08'2 4.3
2018-Jun-24 19:30N 29°47' W 092°10'1 2.9
2018-Jun-24 19:00N 29°47' W 092°12'1 1.4
2018-Jun-24 18:30N 29°47' W 092°12'1 1.1
2018-Jun-24 18:00N 29°47' W 092°13'1 1.7
2018-Jun-24 17:30N 29°48' W 092°14'1 1.1
2018-Jun-24 17:00N 29°48' W 092°14'1 3.0
2018-Jun-24 16:30N 29°49' W 092°16'0 1.0
2018-Jun-24 16:00N 29°49' W 092°17'1 1.0
2018-Jun-24 15:30N 29°49' W 092°17'0 0.0
2018-Jun-24 15:00N 29°49' W 092°17'0 0.8
2018-Jun-24 14:30N 29°49' W 092°17'1 2.9
2018-Jun-24 14:00N 29°50' W 092°19'3 4.6
2018-Jun-24 13:24N 29°51' W 092°22'33 3.8
2018-Jun-24 04:49N 29°56' W 092°59'3 3.9
2018-Jun-24 04:09N 29°56' W 093°02'1 4.4
2018-Jun-24 03:56N 29°56' W 093°03'2 3.9
2018-Jun-24 03:29N 29°56' W 093°05'2 4.4
2018-Jun-24 03:00N 29°56' W 093°07'2 3.9
2018-Jun-24 02:30N 29°56' W 093°10'2 3.4
2018-Jun-24 01:59N 29°57' W 093°11'2 4.5
2018-Jun-24 01:30N 29°59' W 093°12'2 4.3
2018-Jun-24 01:00N 30°01' W 093°14'1 1.5
2018-Jun-24 00:30N 30°02' W 093°14'0 0.1
2018-Jun-24 00:00N 30°02' W 093°14'0 0.7
2018-Jun-23 23:30N 30°02' W 093°15'2 3.9
2018-Jun-23 23:00N 30°03' W 093°16'1 2.9
2018-Jun-23 22:30N 30°05' W 093°17'1 2.1
2018-Jun-23 22:00N 30°05' W 093°18'1 1.6
2018-Jun-23 21:30N 30°06' W 093°18'1 1.1
2018-Jun-23 21:00N 30°06' W 093°19'0 0.1
2018-Jun-23 20:25N 30°06' W 093°19'0 0.0
2018-Jun-23 20:00N 30°06' W 093°19'0 0.0
2018-Jun-23 19:29N 30°06' W 093°19'0 0.0
2018-Jun-23 18:59N 30°06' W 093°19'0 0.0
2018-Jun-23 18:30N 30°06' W 093°19'0 0.1
2018-Jun-23 18:00N 30°06' W 093°19'0 0.2
2018-Jun-23 17:30N 30°06' W 093°19'0 0.0
2018-Jun-23 17:00N 30°06' W 093°19'0 0.0
2018-Jun-23 16:30N 30°06' W 093°19'0 0.0
2018-Jun-23 16:00N 30°06' W 093°19'0 0.0
2018-Jun-23 15:30N 30°06' W 093°19'0 0.1
2018-Jun-23 15:00N 30°06' W 093°19'0 0.1
2018-Jun-23 14:30N 30°06' W 093°19'0 0.0
2018-Jun-23 14:00N 30°06' W 093°19'0 0.0
2018-Jun-23 13:30N 30°06' W 093°19'0 0.1
2018-Jun-23 13:00N 30°06' W 093°19'0 0.0
2018-Jun-23 12:30N 30°06' W 093°19'1 1.5
2018-Jun-23 12:00N 30°06' W 093°19'2 3.6
2018-Jun-23 11:30N 30°04' W 093°21'2 3.1
2018-Jun-23 11:00N 30°04' W 093°22'0 0.5
2018-Jun-23 10:30N 30°04' W 093°23'0 0.1
2018-Jun-23 10:00N 30°04' W 093°23'0 0.0
2018-Jun-23 09:30N 30°04' W 093°23'0 0.0
2018-Jun-23 09:00N 30°04' W 093°23'0 0.0
2018-Jun-23 08:30N 30°04' W 093°23'0 0.0
2018-Jun-23 07:58N 30°04' W 093°23'0 0.0
2018-Jun-23 07:30N 30°04' W 093°23'0 0.0
2018-Jun-23 07:00N 30°04' W 093°23'0 0.2
2018-Jun-23 06:30N 30°04' W 093°23'1 1.6
2018-Jun-23 06:00N 30°04' W 093°24'1 1.3
2018-Jun-23 05:30N 30°04' W 093°24'0 0.0
2018-Jun-23 05:00N 30°04' W 093°24'0 0.0
2018-Jun-23 04:30N 30°04' W 093°24'0 0.0
2018-Jun-23 03:59N 30°04' W 093°24'0 0.0
2018-Jun-23 03:30N 30°04' W 093°24'0 0.0
2018-Jun-23 03:00N 30°04' W 093°24'0 0.7
2018-Jun-23 02:30N 30°04' W 093°25'0 0.9
2018-Jun-23 02:00N 30°04' W 093°25'0 0.7
2018-Jun-23 01:30N 30°04' W 093°26'2 3.8
2018-Jun-23 01:00N 30°04' W 093°28'2 4.9
2018-Jun-23 00:30N 30°04' W 093°31'4 4.6
2018-Jun-22 23:41N 30°04' W 093°35'2 4.9
2018-Jun-22 23:16N 30°04' W 093°37'2 4.9
2018-Jun-22 22:48N 30°04' W 093°40'2 5.0
2018-Jun-22 22:30N 30°03' W 093°42'2 4.6
2018-Jun-22 22:00N 30°02' W 093°44'2 4.2
2018-Jun-22 21:30N 30°01' W 093°46'2 3.4
2018-Jun-22 21:00N 29°60' W 093°47'2 4.6
2018-Jun-22 20:30N 29°59' W 093°49'2 3.8
2018-Jun-22 20:00N 29°58' W 093°51'2 3.7
2018-Jun-22 19:30N 29°56' W 093°52'0 0.5
2018-Jun-22 19:00N 29°56' W 093°52'1 1.9
2018-Jun-22 18:30N 29°57' W 093°52'1 2.0
2018-Jun-22 17:59N 29°58' W 093°52'0 0.0
2018-Jun-22 17:30N 29°58' W 093°52'0 0.0
2018-Jun-22 16:59N 29°58' W 093°52'0 0.0
2018-Jun-22 16:30N 29°58' W 093°52'0 0.0
2018-Jun-22 16:00N 29°58' W 093°52'0 0.0
2018-Jun-22 15:30N 29°58' W 093°52'0 0.0
2018-Jun-22 15:00N 29°58' W 093°52'0 0.0
2018-Jun-22 14:30N 29°58' W 093°52'0 0.0
2018-Jun-22 13:59N 29°58' W 093°52'0 0.0
2018-Jun-22 13:30N 29°58' W 093°52'0 0.0
2018-Jun-22 13:00N 29°58' W 093°52'0 0.0
2018-Jun-22 12:30N 29°58' W 093°52'3 5.3
2018-Jun-22 12:00N 29°59' W 093°49'4 7.4
2018-Jun-22 11:30N 30°01' W 093°45'4 6.6
2018-Jun-22 10:55N 30°04' W 093°42'3 6.8
2018-Jun-22 10:29N 30°04' W 093°38'3 6.4
2018-Jun-22 09:59N 30°04' W 093°35'3 5.6
2018-Jun-22 09:30N 30°04' W 093°31'3 6.5
2018-Jun-22 09:00N 30°04' W 093°28'3 6.5
2018-Jun-22 08:30N 30°04' W 093°24'2 4.3
2018-Jun-22 08:00N 30°04' W 093°21'0 0.2
2018-Jun-22 07:30N 30°04' W 093°21'0 0.0
2018-Jun-22 07:00N 30°04' W 093°21'0 0.0
2018-Jun-22 06:30N 30°04' W 093°21'0 0.0
2018-Jun-22 06:00N 30°04' W 093°21'1 1.4
2018-Jun-22 05:30N 30°04' W 093°21'1 1.2
2018-Jun-22 05:00N 30°05' W 093°20'1 2.8
2018-Jun-22 04:30N 30°06' W 093°19'1 2.3
2018-Jun-22 04:00N 30°06' W 093°18'1 1.2
2018-Jun-22 03:30N 30°05' W 093°17'1 1.9
2018-Jun-22 03:00N 30°05' W 093°17'0 0.8
2018-Jun-22 02:30N 30°04' W 093°16'0 0.3
2018-Jun-22 02:00N 30°04' W 093°16'0 0.0
2018-Jun-22 01:30N 30°04' W 093°16'0 0.0
2018-Jun-22 01:00N 30°04' W 093°16'0 0.0
2018-Jun-22 00:30N 30°04' W 093°16'0 0.0
2018-Jun-22 00:00N 30°04' W 093°16'0 0.0
2018-Jun-21 23:30N 30°04' W 093°16'0 0.0
2018-Jun-21 23:00N 30°04' W 093°16'0 0.0
2018-Jun-21 22:30N 30°04' W 093°16'0 0.0
2018-Jun-21 22:00N 30°04' W 093°16'0 0.0
2018-Jun-21 21:30N 30°04' W 093°16'0 0.0
2018-Jun-21 21:00N 30°04' W 093°16'0 0.0
2018-Jun-21 20:30N 30°04' W 093°16'0 0.0
2018-Jun-21 20:00N 30°04' W 093°16'0 0.0
2018-Jun-21 19:30N 30°04' W 093°16'0 0.0
2018-Jun-21 19:00N 30°04' W 093°16'0 0.0
2018-Jun-21 18:30N 30°04' W 093°16'0 0.0
2018-Jun-21 18:00N 30°04' W 093°16'0 0.0
2018-Jun-21 17:30N 30°04' W 093°16'0 0.0
2018-Jun-21 17:00N 30°04' W 093°16'0 0.0
2018-Jun-21 16:30N 30°04' W 093°16'0 0.0
2018-Jun-21 16:00N 30°04' W 093°16'0 0.0
2018-Jun-21 15:30N 30°04' W 093°16'0 0.0
2018-Jun-21 15:00N 30°04' W 093°16'0 0.0
2018-Jun-21 14:30N 30°04' W 093°16'0 0.0
2018-Jun-21 13:59N 30°04' W 093°16'0 0.0
2018-Jun-21 13:30N 30°04' W 093°16'0 0.1
2018-Jun-21 13:00N 30°04' W 093°16'1 2.8
2018-Jun-21 12:30N 30°03' W 093°16'1 2.2
2018-Jun-21 12:00N 30°02' W 093°15'1 3.0
2018-Jun-21 11:30N 30°01' W 093°14'2 3.2
2018-Jun-21 11:00N 29°59' W 093°13'2 3.2
2018-Jun-21 10:30N 29°58' W 093°12'2 3.1
2018-Jun-21 10:00N 29°57' W 093°10'1 2.5
2018-Jun-21 09:30N 29°56' W 093°10'1 1.9
2018-Jun-21 09:00N 29°56' W 093°08'1 2.1
2018-Jun-21 08:27N 29°56' W 093°07'35 2.7
2018-Jun-20 19:47N 29°54' W 092°27'2 2.7
2018-Jun-20 19:11N 29°53' W 092°25'1 3.3
2018-Jun-20 18:57N 29°53' W 092°24'1 3.2
2018-Jun-20 18:29N 29°52' W 092°23'2 3.1
2018-Jun-20 17:57N 29°51' W 092°22'1 2.8
2018-Jun-20 17:30N 29°51' W 092°20'0 0.9
2018-Jun-20 17:00N 29°51' W 092°20'0 0.7
2018-Jun-20 16:30N 29°50' W 092°20'1 2.8
2018-Jun-20 16:01N 29°50' W 092°18'0 0.8
2018-Jun-20 15:30N 29°50' W 092°18'0 0.3
2018-Jun-20 15:00N 29°50' W 092°18'0 0.9
2018-Jun-20 14:30N 29°49' W 092°17'0 0.1
2018-Jun-20 14:00N 29°49' W 092°17'0 0.0
2018-Jun-20 13:30N 29°49' W 092°17'0 0.0
2018-Jun-20 13:00N 29°49' W 092°17'0 0.0
2018-Jun-20 12:28N 29°49' W 092°17'0 0.0
2018-Jun-20 12:00N 29°49' W 092°17'0 0.0
2018-Jun-20 11:29N 29°49' W 092°17'0 0.0
2018-Jun-20 11:00N 29°49' W 092°17'0 0.0
2018-Jun-20 10:28N 29°49' W 092°17'1 1.2
2018-Jun-20 10:00N 29°49' W 092°17'1 2.5
2018-Jun-20 09:30N 29°48' W 092°16'1 2.4
2018-Jun-20 08:59N 29°48' W 092°14'2 3.2
2018-Jun-20 08:30N 29°47' W 092°13'0 0.6
2018-Jun-20 07:59N 29°47' W 092°12'1 1.9
2018-Jun-20 07:30N 29°47' W 092°11'0 0.0
2018-Jun-20 07:00N 29°47' W 092°11'0 0.0
2018-Jun-20 06:30N 29°47' W 092°11'1 1.1
2018-Jun-20 06:00N 29°47' W 092°11'0 0.1
2018-Jun-20 05:30N 29°47' W 092°11'0 0.0
2018-Jun-20 05:00N 29°47' W 092°11'0 0.0
2018-Jun-20 04:29N 29°47' W 092°11'0 0.0
2018-Jun-20 04:00N 29°47' W 092°11'0 0.0
2018-Jun-20 03:30N 29°47' W 092°11'0 0.0
2018-Jun-20 03:00N 29°47' W 092°11'0 0.0
2018-Jun-20 02:30N 29°47' W 092°11'0 0.0
2018-Jun-20 02:00N 29°47' W 092°11'0 0.1
2018-Jun-20 01:29N 29°47' W 092°11'0 0.1
2018-Jun-20 01:00N 29°47' W 092°11'1 2.0
2018-Jun-20 00:30N 29°47' W 092°10'1 3.0
2018-Jun-20 00:00N 29°47' W 092°08'0 0.4
2018-Jun-19 23:30N 29°47' W 092°08'0 0.0
2018-Jun-19 23:00N 29°47' W 092°08'0 0.1
2018-Jun-19 22:30N 29°47' W 092°08'0 0.0
2018-Jun-19 22:00N 29°47' W 092°08'0 0.0
2018-Jun-19 21:30N 29°47' W 092°08'0 0.0
2018-Jun-19 21:00N 29°47' W 092°08'0 0.0
2018-Jun-19 20:30N 29°47' W 092°08'0 0.0
2018-Jun-19 20:00N 29°47' W 092°08'1 1.2
2018-Jun-19 19:30N 29°47' W 092°07'1 2.0
2018-Jun-19 19:00N 29°48' W 092°06'0 0.1
2018-Jun-19 18:30N 29°48' W 092°06'0 0.0
2018-Jun-19 17:52N 29°48' W 092°06'0 0.0
2018-Jun-19 17:30N 29°48' W 092°06'0 0.1
2018-Jun-19 17:00N 29°48' W 092°06'0 0.0
2018-Jun-19 16:30N 29°48' W 092°06'0 0.0
2018-Jun-19 16:00N 29°48' W 092°06'0 0.1
2018-Jun-19 15:30N 29°48' W 092°06'1 1.3
2018-Jun-19 15:00N 29°48' W 092°05'2 3.5
2018-Jun-19 14:30N 29°49' W 092°03'2 3.6
2018-Jun-19 14:00N 29°49' W 092°01'2 3.8
2018-Jun-19 13:30N 29°50' W 091°59'56 2.3
2018-Jun-18 12:38N 29°34' W 090°57'2 4.0
2018-Jun-18 12:14N 29°33' W 090°55'3 3.8
2018-Jun-18 11:25N 29°32' W 090°52'2 4.0
2018-Jun-18 11:00N 29°32' W 090°50'2 4.0
2018-Jun-18 10:30N 29°32' W 090°48'2 3.6
2018-Jun-18 10:00N 29°32' W 090°46'2 3.5
2018-Jun-18 09:30N 29°34' W 090°44'1 2.9
2018-Jun-18 09:00N 29°35' W 090°43'2 3.3
2018-Jun-18 08:30N 29°36' W 090°43'1 2.4
2018-Jun-18 08:00N 29°36' W 090°41'1 2.5
2018-Jun-18 07:30N 29°36' W 090°40'1 2.5
2018-Jun-18 07:00N 29°35' W 090°39'1 2.7
2018-Jun-18 06:30N 29°35' W 090°37'2 3.3
2018-Jun-18 06:00N 29°35' W 090°35'2 3.6
2018-Jun-18 05:30N 29°34' W 090°34'1 3.0
2018-Jun-18 05:00N 29°34' W 090°32'  

Dump ship's entire track history